createdAt,value
2022-12-10T00:01:17.721Z,7.57
2022-12-10T00:03:44.927Z,7.83
2022-12-10T00:06:13.764Z,7.23
2022-12-10T00:08:40.472Z,7.20
2022-12-10T00:11:08.913Z,6.43
2022-12-10T00:13:36.765Z,6.93
2022-12-10T00:16:05.328Z,5.13
2022-12-10T00:18:32.254Z,7.00
2022-12-10T00:20:58.628Z,6.73
2022-12-10T00:23:25.076Z,5.57
2022-12-10T00:25:51.521Z,6.80
2022-12-10T00:28:17.865Z,7.00
2022-12-10T00:30:44.153Z,6.57
2022-12-10T00:33:10.457Z,6.97
2022-12-10T00:35:37.651Z,6.53
2022-12-10T00:38:04.456Z,4.67
2022-12-10T00:40:30.759Z,7.03
2022-12-10T00:42:57.043Z,5.47
2022-12-10T00:45:23.328Z,7.00
2022-12-10T00:47:49.689Z,4.80
2022-12-10T00:50:16.020Z,6.40
2022-12-10T00:52:42.362Z,6.67
2022-12-10T00:55:08.853Z,6.53
2022-12-10T00:57:35.133Z,6.87
2022-12-10T01:00:01.431Z,7.20
2022-12-10T01:02:27.735Z,6.23
2022-12-10T01:04:54.737Z,6.80
2022-12-10T01:07:21.089Z,6.40
2022-12-10T01:09:47.745Z,6.63
2022-12-10T01:12:14.057Z,6.50
2022-12-10T01:14:40.419Z,6.23
2022-12-10T01:17:07.002Z,7.80
2022-12-10T01:19:34.337Z,7.37
2022-12-10T01:22:00.830Z,7.33
2022-12-10T01:24:28.619Z,7.83
2022-12-10T01:26:56.108Z,7.17
2022-12-10T01:29:23.085Z,7.03
2022-12-10T01:31:52.898Z,6.50
2022-12-10T01:34:19.542Z,7.87
2022-12-10T01:36:49.613Z,7.40
2022-12-10T01:39:17.614Z,6.93
2022-12-10T01:41:47.490Z,5.60
2022-12-10T01:44:13.701Z,5.00
2022-12-10T01:46:42.513Z,7.23
2022-12-10T01:49:15.682Z,4.43
2022-12-10T01:51:44.346Z,6.30
2022-12-10T01:54:17.119Z,4.97
2022-12-10T01:56:46.651Z,6.13
2022-12-10T01:59:16.426Z,6.80
2022-12-10T02:02:13.930Z,6.73
2022-12-10T02:04:56.509Z,6.10
2022-12-10T02:07:40.310Z,6.20
2022-12-10T02:10:17.038Z,6.93
2022-12-10T02:13:04.997Z,6.67
2022-12-10T02:15:35.551Z,7.33
2022-12-10T02:18:26.618Z,6.37
2022-12-10T02:20:58.141Z,7.17
2022-12-10T02:23:26.741Z,7.30
2022-12-10T02:26:11.588Z,7.20
2022-12-10T02:28:48.102Z,7.23
2022-12-10T02:31:19.613Z,6.93
2022-12-10T02:33:51.236Z,7.07
2022-12-10T02:36:21.477Z,6.40
2022-12-10T02:38:50.471Z,7.20
2022-12-10T02:41:27.821Z,6.97
2022-12-10T02:43:57.526Z,6.87
2022-12-10T02:46:31.768Z,6.57
2022-12-10T02:48:59.110Z,6.53
2022-12-10T02:51:25.403Z,6.87
2022-12-10T02:54:07.681Z,6.30
2022-12-10T02:56:41.302Z,6.97
2022-12-10T02:59:15.477Z,6.50
2022-12-10T03:02:00.593Z,5.77
2022-12-10T03:04:39.818Z,6.23
2022-12-10T03:07:32.293Z,6.00
2022-12-10T03:10:07.563Z,6.43
2022-12-10T03:12:40.171Z,6.43
2022-12-10T03:15:10.819Z,5.57
2022-12-10T03:17:40.042Z,4.63
2022-12-10T03:20:09.930Z,6.03
2022-12-10T03:22:40.186Z,6.00
2022-12-10T03:25:08.247Z,5.10
2022-12-10T03:27:35.764Z,3.30
2022-12-10T03:30:02.209Z,4.73
2022-12-10T03:32:30.264Z,5.30
2022-12-10T03:34:58.824Z,5.33
2022-12-10T03:37:27.746Z,5.87
2022-12-10T03:39:54.354Z,5.77
2022-12-10T03:42:20.710Z,5.60
2022-12-10T03:44:52.800Z,5.10
2022-12-10T03:47:20.376Z,6.30
2022-12-10T03:49:46.753Z,6.23
2022-12-10T03:52:13.639Z,8.40
2022-12-10T03:54:40.165Z,4.70
2022-12-10T03:57:06.728Z,5.77
2022-12-10T03:59:33.042Z,6.77
2022-12-10T04:01:59.395Z,8.23
2022-12-10T04:04:25.747Z,7.40
2022-12-10T04:06:52.125Z,5.60
2022-12-10T04:09:18.474Z,5.80
2022-12-10T04:11:45.230Z,6.20
2022-12-10T04:14:31.176Z,5.40
2022-12-10T04:16:57.972Z,8.07
2022-12-10T04:19:24.329Z,5.40
2022-12-10T04:22:09.252Z,5.80
2022-12-10T04:24:55.988Z,5.27
2022-12-10T04:27:28.157Z,4.23
2022-12-10T04:29:56.028Z,8.17
2022-12-10T04:32:23.230Z,5.30
2022-12-10T04:34:49.542Z,5.07
2022-12-10T04:37:16.502Z,5.43
2022-12-10T04:39:43.099Z,6.17
2022-12-10T04:42:09.577Z,5.60
2022-12-10T04:44:36.489Z,6.13
2022-12-10T04:47:05.055Z,5.47
2022-12-10T04:49:31.361Z,5.40
2022-12-10T04:51:57.790Z,5.13
2022-12-10T04:54:24.574Z,5.23
2022-12-10T04:56:51.099Z,8.07
2022-12-10T04:59:17.707Z,7.90
2022-12-10T05:01:44.990Z,6.27
2022-12-10T05:04:14.049Z,5.67
2022-12-10T05:06:41.047Z,6.37
2022-12-10T05:09:07.713Z,6.83
2022-12-10T05:11:35.496Z,6.07
2022-12-10T05:14:01.887Z,6.60
2022-12-10T05:16:31.857Z,6.10
2022-12-10T05:18:58.634Z,6.13
2022-12-10T05:21:50.409Z,6.57
2022-12-10T05:24:18.383Z,6.27
2022-12-10T05:26:45.112Z,7.03
2022-12-10T05:29:13.312Z,6.50
2022-12-10T05:31:39.700Z,9.00
2022-12-10T05:34:05.998Z,5.83
2022-12-10T05:36:32.831Z,6.67
2022-12-10T05:38:59.618Z,6.40
2022-12-10T05:41:29.066Z,6.73
2022-12-10T05:43:56.755Z,6.77
2022-12-10T05:46:29.135Z,9.43
2022-12-10T05:48:56.208Z,7.07
2022-12-10T05:51:28.129Z,6.73
2022-12-10T05:53:55.248Z,6.70
2022-12-10T05:56:23.771Z,7.00
2022-12-10T05:58:51.851Z,7.17
2022-12-10T06:01:20.887Z,6.40
2022-12-10T06:03:47.946Z,6.47
2022-12-10T06:06:14.798Z,9.97
2022-12-10T06:08:41.242Z,7.13
2022-12-10T06:11:11.559Z,6.73
2022-12-10T06:13:38.776Z,5.90
2022-12-10T06:16:10.434Z,10.33
2022-12-10T06:18:37.401Z,10.67
2022-12-10T06:21:09.103Z,9.67
2022-12-10T06:23:36.774Z,6.53
2022-12-10T06:26:14.387Z,6.47
2022-12-10T06:28:45.174Z,6.50
2022-12-10T06:31:11.665Z,7.53
2022-12-10T06:33:38.219Z,6.87
2022-12-10T06:36:10.006Z,6.53
2022-12-10T06:38:39.061Z,6.87
2022-12-10T06:41:07.677Z,6.90
2022-12-10T06:43:34.100Z,5.47
2022-12-10T06:46:05.700Z,6.53
2022-12-10T06:48:31.993Z,6.23
2022-12-10T06:50:58.277Z,6.27
2022-12-10T06:53:24.920Z,7.07
2022-12-10T06:55:51.201Z,6.37
2022-12-10T06:58:17.519Z,6.97
2022-12-10T07:00:43.903Z,6.53
2022-12-10T07:03:10.215Z,6.27
2022-12-10T07:05:36.535Z,6.03
2022-12-10T07:08:02.873Z,9.90
2022-12-10T07:10:29.180Z,9.47
2022-12-10T07:12:55.496Z,6.67
2022-12-10T07:15:24.017Z,6.10
2022-12-10T07:17:51.888Z,6.10
2022-12-10T07:20:18.268Z,6.87
2022-12-10T07:22:44.612Z,6.50
2022-12-10T07:25:10.960Z,6.90
2022-12-10T07:27:37.608Z,6.67
2022-12-10T07:30:04.123Z,6.20
2022-12-10T07:32:30.426Z,6.17
2022-12-10T07:34:56.848Z,6.63
2022-12-10T07:37:23.128Z,7.23
2022-12-10T07:39:49.445Z,6.80
2022-12-10T07:42:15.770Z,6.47
2022-12-10T07:44:48.952Z,6.13
2022-12-10T07:47:15.933Z,6.67
2022-12-10T07:49:42.253Z,7.00
2022-12-10T07:52:09.150Z,7.50
2022-12-10T07:54:35.463Z,7.43
2022-12-10T07:57:01.770Z,7.17
2022-12-10T07:59:28.102Z,7.53
2022-12-10T08:01:54.457Z,7.27
2022-12-10T08:04:20.865Z,7.37
2022-12-10T08:06:48.437Z,7.83
2022-12-10T08:09:14.753Z,7.43
2022-12-10T08:11:41.128Z,8.17
2022-12-10T08:14:07.414Z,8.10
2022-12-10T08:16:33.784Z,8.73
2022-12-10T08:19:02.206Z,7.70
2022-12-10T08:21:31.972Z,8.03
2022-12-10T08:23:58.760Z,8.30
2022-12-10T08:26:27.936Z,7.73
2022-12-10T08:28:54.759Z,7.30
2022-12-10T08:31:22.843Z,7.47
2022-12-10T08:33:49.456Z,7.77
2022-12-10T08:36:17.577Z,7.90
2022-12-10T08:38:45.110Z,7.90
2022-12-10T08:41:17.397Z,7.80
2022-12-10T08:43:44.158Z,7.30
2022-12-10T08:46:11.524Z,7.50
2022-12-10T08:48:38.856Z,7.57
2022-12-10T08:51:06.381Z,7.20
2022-12-10T08:53:33.787Z,8.57
2022-12-10T08:56:00.273Z,7.60
2022-12-10T08:58:26.599Z,8.30
2022-12-10T09:00:53.209Z,6.93
2022-12-10T09:03:19.854Z,6.57
2022-12-10T09:05:46.200Z,7.87
2022-12-10T09:08:12.566Z,7.67
2022-12-10T09:10:40.454Z,6.53
2022-12-10T09:13:07.356Z,6.60
2022-12-10T09:15:33.735Z,8.00
2022-12-10T09:18:00.026Z,7.30
2022-12-10T09:20:26.372Z,6.93
2022-12-10T09:22:52.740Z,7.33
2022-12-10T09:25:22.110Z,6.70
2022-12-10T09:27:49.038Z,7.10
2022-12-10T09:30:16.122Z,6.70
2022-12-10T09:32:42.591Z,7.30
2022-12-10T09:35:08.985Z,6.40
2022-12-10T09:37:35.367Z,6.23
2022-12-10T09:40:01.781Z,6.53
2022-12-10T09:42:48.849Z,6.13
2022-12-10T09:45:25.146Z,7.17
2022-12-10T09:48:03.383Z,6.67
2022-12-10T09:50:34.962Z,7.57
2022-12-10T09:53:03.634Z,7.27
2022-12-10T09:55:43.353Z,7.13
2022-12-10T09:58:17.099Z,7.00
2022-12-10T10:00:47.054Z,7.13
2022-12-10T10:03:15.649Z,7.40
2022-12-10T10:05:46.717Z,6.57
2022-12-10T10:08:23.022Z,7.37
2022-12-10T10:10:49.759Z,6.17
2022-12-10T10:13:30.069Z,6.93
2022-12-10T10:15:56.386Z,5.97
2022-12-10T10:18:22.609Z,5.60
2022-12-10T10:20:49.893Z,4.87
2022-12-10T10:23:17.029Z,6.10
2022-12-10T10:25:45.410Z,5.50
2022-12-10T10:28:14.546Z,5.03
2022-12-10T10:30:45.056Z,5.50
2022-12-10T10:33:13.603Z,5.17
2022-12-10T10:35:47.724Z,5.20
2022-12-10T10:38:24.460Z,5.20
2022-12-10T10:40:53.542Z,5.13
2022-12-10T10:43:24.954Z,4.97
2022-12-10T10:45:55.421Z,5.17
2022-12-10T10:48:24.570Z,5.33
2022-12-10T10:51:13.769Z,5.80
2022-12-10T10:53:40.013Z,5.23
2022-12-10T10:56:09.204Z,4.20
2022-12-10T10:58:37.413Z,4.60
2022-12-10T11:01:08.386Z,4.40
2022-12-10T11:03:37.668Z,4.53
2022-12-10T11:06:08.131Z,4.87
2022-12-10T11:08:38.063Z,3.37
2022-12-10T11:11:26.111Z,3.43
2022-12-10T11:13:52.484Z,4.10
2022-12-10T11:16:23.366Z,4.60
2022-12-10T11:19:05.407Z,3.93
2022-12-10T11:21:33.985Z,4.10
2022-12-10T11:24:04.932Z,4.23
2022-12-10T11:26:53.030Z,4.07
2022-12-10T11:29:47.272Z,4.40
2022-12-10T11:32:22.858Z,4.33
2022-12-10T11:35:01.912Z,4.20
2022-12-10T11:37:53.410Z,4.00
2022-12-10T11:40:19.639Z,4.33
2022-12-10T11:43:15.363Z,4.57
2022-12-10T11:46:17.901Z,4.47
2022-12-10T11:48:57.256Z,3.90
2022-12-10T11:51:52.245Z,4.30
2022-12-10T11:55:05.962Z,4.00
2022-12-10T11:57:59.977Z,3.57
2022-12-10T12:00:34.096Z,4.23
2022-12-10T12:03:24.952Z,4.33
2022-12-10T12:06:16.850Z,5.03
2022-12-10T12:09:01.581Z,4.80
2022-12-10T12:11:35.367Z,4.20
2022-12-10T12:14:07.687Z,4.80
2022-12-10T12:17:16.704Z,4.53
2022-12-10T12:19:51.989Z,4.13
2022-12-10T12:22:34.038Z,4.97
2022-12-10T12:25:06.997Z,5.43
2022-12-10T12:27:54.241Z,4.13
2022-12-10T12:30:23.004Z,4.57
2022-12-10T12:33:30.205Z,5.27
2022-12-10T12:36:01.794Z,4.40
2022-12-10T12:38:46.089Z,4.40
2022-12-10T12:41:24.606Z,4.77
2022-12-10T12:44:04.066Z,4.53
2022-12-10T12:46:36.277Z,4.63
2022-12-10T12:49:14.411Z,4.77
2022-12-10T12:51:45.999Z,4.87
2022-12-10T12:54:13.020Z,4.70
2022-12-10T12:57:00.395Z,4.73
2022-12-10T12:59:49.233Z,4.53
2022-12-10T13:02:31.209Z,4.77
2022-12-10T13:05:01.126Z,3.30
2022-12-10T13:07:29.851Z,4.43
2022-12-10T13:10:24.741Z,4.70
2022-12-10T13:13:08.625Z,3.10
2022-12-10T13:15:37.650Z,4.17
2022-12-10T13:18:19.191Z,3.90
2022-12-10T13:20:48.354Z,4.60
2022-12-10T13:23:26.881Z,4.63
2022-12-10T13:25:55.606Z,5.00
2022-12-10T13:28:48.981Z,5.07
2022-12-10T13:31:15.827Z,5.37
2022-12-10T13:34:20.490Z,3.97
2022-12-10T13:36:46.733Z,2.97
2022-12-10T13:39:23.289Z,5.13
2022-12-10T13:42:34.732Z,5.47
2022-12-10T13:45:04.989Z,5.10
2022-12-10T13:47:46.643Z,3.97
2022-12-10T13:50:33.579Z,5.23
2022-12-10T13:53:15.337Z,5.20
2022-12-10T13:56:03.221Z,5.20
2022-12-10T13:59:04.457Z,5.10
2022-12-10T14:01:51.005Z,5.37
2022-12-10T14:04:55.468Z,4.80
2022-12-10T14:07:22.870Z,5.00
2022-12-10T14:09:53.066Z,4.20
2022-12-10T14:12:23.721Z,4.23
2022-12-10T14:14:56.284Z,4.47
2022-12-10T14:17:30.387Z,5.30
2022-12-10T14:19:56.965Z,5.30
2022-12-10T14:22:34.197Z,4.93
2022-12-10T14:25:04.575Z,3.20
2022-12-10T14:27:30.989Z,4.93
2022-12-10T14:30:18.774Z,4.87
2022-12-10T14:32:46.261Z,5.53
2022-12-10T14:35:25.135Z,5.47
2022-12-10T14:37:55.606Z,5.23
2022-12-10T14:40:33.578Z,5.30
2022-12-10T14:43:09.512Z,3.87
2022-12-10T14:45:47.230Z,5.30
2022-12-10T14:48:17.160Z,5.57
2022-12-10T14:50:47.029Z,6.50
2022-12-10T14:53:25.008Z,4.87
2022-12-10T14:55:58.695Z,4.53
2022-12-10T14:58:37.172Z,4.73
2022-12-10T15:01:16.115Z,5.57
2022-12-10T15:03:47.189Z,5.90
2022-12-10T15:06:18.352Z,6.83
2022-12-10T15:08:47.018Z,6.10
2022-12-10T15:11:18.410Z,7.13
2022-12-10T15:13:48.984Z,6.77
2022-12-10T15:16:20.578Z,6.70
2022-12-10T15:18:47.124Z,7.07
2022-12-10T15:21:21.857Z,5.83
2022-12-10T15:23:48.970Z,6.97
2022-12-10T15:26:20.247Z,7.37
2022-12-10T15:28:48.317Z,6.50
2022-12-10T15:31:25.999Z,6.87
2022-12-10T15:34:01.789Z,7.47
2022-12-10T15:36:33.763Z,8.47
2022-12-10T15:39:24.788Z,8.37
2022-12-10T15:42:31.820Z,7.93
2022-12-10T15:45:21.996Z,8.03
2022-12-10T15:47:48.519Z,9.30
2022-12-10T15:50:15.568Z,7.57
2022-12-10T15:52:42.634Z,8.40
2022-12-10T15:55:10.018Z,8.17
2022-12-10T15:57:40.351Z,7.73
2022-12-10T16:00:16.119Z,7.67
2022-12-10T16:02:48.241Z,8.27
2022-12-10T16:05:19.191Z,8.13
2022-12-10T16:07:47.449Z,7.70
2022-12-10T16:10:16.477Z,6.20
2022-12-10T16:12:45.832Z,6.60
2022-12-10T16:15:21.499Z,6.37
2022-12-10T16:17:48.478Z,7.70
2022-12-10T16:20:19.828Z,6.97
2022-12-10T16:22:47.172Z,6.67
2022-12-10T16:25:14.210Z,6.83
2022-12-10T16:27:43.429Z,7.00
2022-12-10T16:30:20.370Z,7.50
2022-12-10T16:32:47.829Z,8.30
2022-12-10T16:35:15.085Z,7.10
2022-12-10T16:37:43.364Z,7.63
2022-12-10T16:40:11.158Z,8.17
2022-12-10T16:42:39.886Z,7.93
2022-12-10T16:45:36.648Z,7.73
2022-12-10T16:48:03.692Z,8.47
2022-12-10T16:50:30.145Z,8.90
2022-12-10T16:52:58.176Z,8.97
2022-12-10T16:55:26.558Z,9.07
2022-12-10T16:57:54.385Z,8.30
2022-12-10T17:00:23.633Z,8.37
2022-12-10T17:02:51.660Z,9.20
2022-12-10T17:05:34.569Z,9.60
2022-12-10T17:08:00.864Z,9.40
2022-12-10T17:10:50.805Z,8.83
2022-12-10T17:13:17.482Z,8.13
2022-12-10T17:15:44.361Z,10.93
2022-12-10T17:18:15.301Z,9.07
2022-12-10T17:20:42.085Z,8.70
2022-12-10T17:23:08.402Z,8.87
2022-12-10T17:25:35.376Z,9.07
2022-12-10T17:28:01.797Z,8.40
2022-12-10T17:30:28.079Z,9.17
2022-12-10T17:32:54.440Z,8.50
2022-12-10T17:35:22.005Z,8.33
2022-12-10T17:37:51.253Z,9.07
2022-12-10T17:40:19.716Z,9.07
2022-12-10T17:42:46.133Z,8.33
2022-12-10T17:45:17.710Z,8.63
2022-12-10T17:47:48.279Z,8.80
2022-12-10T17:50:17.294Z,10.00
2022-12-10T17:52:43.597Z,9.27
2022-12-10T17:55:09.872Z,9.07
2022-12-10T17:57:36.204Z,8.80
2022-12-10T18:00:02.961Z,9.03
2022-12-10T18:02:29.352Z,9.90
2022-12-10T18:04:55.706Z,10.07
2022-12-10T18:07:22.011Z,9.83
2022-12-10T18:09:48.369Z,10.27
2022-12-10T18:12:14.807Z,9.60
2022-12-10T18:14:41.530Z,9.53
2022-12-10T18:17:12.875Z,10.43
2022-12-10T18:19:43.099Z,7.90
2022-12-10T18:22:11.047Z,9.17
2022-12-10T18:24:37.957Z,9.60
2022-12-10T18:27:04.346Z,9.27
2022-12-10T18:29:31.438Z,10.43
2022-12-10T18:31:57.877Z,10.40
2022-12-10T18:34:25.692Z,18.70
2022-12-10T18:36:52.080Z,12.03
2022-12-10T18:39:23.900Z,11.67
2022-12-10T18:41:51.273Z,10.97
2022-12-10T18:44:21.798Z,12.53
2022-12-10T18:46:48.740Z,12.40
2022-12-10T18:49:15.789Z,14.03
2022-12-10T18:51:42.354Z,11.27
2022-12-10T18:54:09.036Z,10.60
2022-12-10T18:56:36.452Z,10.20
2022-12-10T18:59:04.838Z,10.67
2022-12-10T19:01:31.281Z,11.00
2022-12-10T19:03:58.750Z,11.00
2022-12-10T19:06:28.034Z,10.83
2022-12-10T19:11:47.467Z,10.00
2022-12-10T19:14:15.296Z,11.87
2022-12-10T19:16:42.204Z,10.87
2022-12-10T19:19:11.955Z,11.97
2022-12-10T19:21:38.635Z,11.63
2022-12-10T19:24:05.806Z,17.93
2022-12-10T19:26:34.625Z,17.37
2022-12-10T19:29:13.397Z,11.50
2022-12-10T19:31:39.964Z,11.47
2022-12-10T19:34:06.246Z,10.83
2022-12-10T19:36:34.052Z,12.43
2022-12-10T19:39:00.650Z,11.63
2022-12-10T19:41:27.188Z,10.40
2022-12-10T19:43:53.916Z,8.77
2022-12-10T19:46:22.877Z,9.90
2022-12-10T19:48:50.120Z,10.63
2022-12-10T19:51:16.774Z,8.67
2022-12-10T19:53:43.973Z,10.33
2022-12-10T19:56:19.798Z,15.67
2022-12-10T19:58:48.172Z,15.23
2022-12-10T20:01:14.853Z,9.33
2022-12-10T20:03:41.350Z,13.93
2022-12-10T20:06:31.991Z,9.83
2022-12-10T20:09:00.265Z,10.13
2022-12-10T20:11:27.713Z,10.67
2022-12-10T20:13:54.096Z,14.80
2022-12-10T20:16:27.894Z,14.30
2022-12-10T20:18:56.452Z,14.87
2022-12-10T20:21:24.183Z,10.87
2022-12-10T20:23:51.962Z,10.37
2022-12-10T20:26:30.316Z,10.50
2022-12-10T20:28:56.858Z,11.40
2022-12-10T20:31:23.917Z,10.23
2022-12-10T20:33:50.259Z,10.80
2022-12-10T20:36:20.523Z,10.57
2022-12-10T20:38:47.072Z,10.77
2022-12-10T20:41:15.849Z,10.13
2022-12-10T20:43:42.436Z,10.93
2022-12-10T20:46:22.434Z,11.07
2022-12-10T20:48:49.912Z,12.13
2022-12-10T20:51:17.101Z,12.57
2022-12-10T20:53:43.518Z,11.30
2022-12-10T20:56:15.885Z,10.67
2022-12-10T20:58:42.337Z,12.23
2022-12-10T21:01:09.118Z,13.03
2022-12-10T21:03:35.941Z,12.83
2022-12-10T21:06:02.257Z,11.90
2022-12-10T21:08:28.885Z,12.73
2022-12-10T21:10:56.632Z,12.03
2022-12-10T21:13:27.837Z,13.40
2022-12-10T21:15:56.347Z,13.30
2022-12-10T21:18:22.728Z,13.03
2022-12-10T21:20:49.143Z,14.10
2022-12-10T21:23:19.770Z,13.33
2022-12-10T21:25:46.574Z,12.73
2022-12-10T21:28:13.298Z,12.23
2022-12-10T21:30:40.224Z,12.87
2022-12-10T21:33:06.790Z,12.40
2022-12-10T21:35:33.126Z,12.43
2022-12-10T21:37:59.784Z,12.67
2022-12-10T21:40:26.193Z,13.50
2022-12-10T21:43:10.999Z,12.43
2022-12-10T21:45:37.437Z,10.97
2022-12-10T21:48:03.972Z,13.73
2022-12-10T21:50:31.129Z,13.67
2022-12-10T21:52:57.671Z,13.00
2022-12-10T21:55:29.915Z,13.30
2022-12-10T21:57:57.219Z,14.17
2022-12-10T22:00:23.511Z,14.83
2022-12-10T22:02:49.953Z,13.63
2022-12-10T22:05:16.463Z,15.20
2022-12-10T22:07:42.949Z,13.90
2022-12-10T22:10:12.148Z,13.03
2022-12-10T22:12:38.674Z,14.20
2022-12-10T22:15:05.522Z,12.13
2022-12-10T22:17:31.882Z,13.73
2022-12-10T22:19:58.227Z,13.00
2022-12-10T22:22:24.566Z,12.80
2022-12-10T22:24:50.906Z,12.87
2022-12-10T22:27:17.869Z,14.10
2022-12-10T22:29:44.406Z,12.90
2022-12-10T22:32:10.714Z,12.83
2022-12-10T22:34:42.029Z,12.87
2022-12-10T22:37:11.627Z,13.37
2022-12-10T22:39:37.939Z,12.50
2022-12-10T22:42:04.444Z,13.63
2022-12-10T22:44:30.795Z,13.40
2022-12-10T22:46:57.795Z,11.57
2022-12-10T22:49:24.259Z,12.43
2022-12-10T22:51:50.583Z,11.80
2022-12-10T22:54:16.972Z,12.17
2022-12-10T22:56:43.333Z,13.37
2022-12-10T22:59:11.434Z,12.03
2022-12-10T23:01:38.101Z,13.27
2022-12-10T23:04:04.686Z,13.07
2022-12-10T23:06:31.355Z,12.33
2022-12-10T23:08:58.070Z,13.00
2022-12-10T23:11:24.359Z,13.93
2022-12-10T23:13:50.695Z,12.63
2022-12-10T23:16:18.569Z,12.67
2022-12-10T23:18:49.733Z,12.13
2022-12-10T23:21:27.048Z,12.47
2022-12-10T23:23:54.305Z,12.47
2022-12-10T23:26:21.909Z,11.67
2022-12-10T23:28:48.585Z,12.53
2022-12-10T23:31:15.812Z,12.67
2022-12-10T23:33:42.358Z,13.77
2022-12-10T23:36:09.606Z,13.27
2022-12-10T23:38:36.738Z,13.57
2022-12-10T23:41:10.233Z,13.47
2022-12-10T23:43:36.900Z,13.27
2022-12-10T23:46:03.542Z,12.93
2022-12-10T23:48:30.503Z,14.33
2022-12-10T23:50:58.039Z,14.47
2022-12-10T23:53:24.363Z,14.70
2022-12-10T23:55:50.926Z,13.23
2022-12-10T23:58:17.710Z,13.83
